createdAt,value
2022-10-15T01:33:57.607Z,968.75
2022-10-15T01:36:41.154Z,906.88
2022-10-15T01:39:26.436Z,917.47
2022-10-15T01:42:05.507Z,980.85
2022-10-15T01:44:45.688Z,975.08
2022-10-15T01:47:50.077Z,936.25
2022-10-15T01:50:25.291Z,955.25
2022-10-15T01:52:59.585Z,984.65
2022-10-15T01:55:32.724Z,897.28
2022-10-15T01:58:06.774Z,945.00
2022-10-15T02:00:38.065Z,41.78
2022-10-15T02:05:48.135Z,56.33
2022-10-15T02:09:05.795Z,30.95
2022-10-15T02:12:06.310Z,30.67
2022-10-15T02:14:58.724Z,30.23
2022-10-15T02:18:02.987Z,204.27
2022-10-15T02:21:13.586Z,31.95
2022-10-15T02:23:56.033Z,30.95
2022-10-15T02:26:30.772Z,30.80
2022-10-15T02:29:03.837Z,30.83
2022-10-15T02:31:37.139Z,32.60
2022-10-15T02:34:12.340Z,31.52
2022-10-15T02:36:45.248Z,59.53
2022-10-15T02:39:21.363Z,27.92
2022-10-15T02:41:53.319Z,39.70
2022-10-15T02:44:24.868Z,35.47
2022-10-15T02:46:55.848Z,31.88
2022-10-15T02:49:27.213Z,25.45
2022-10-15T02:51:58.583Z,31.35
2022-10-15T02:57:00.086Z,27.60
2022-10-15T02:59:30.998Z,26.02
2022-10-15T03:02:02.889Z,30.73
2022-10-15T03:04:35.086Z,29.85
2022-10-15T03:07:06.266Z,31.90
2022-10-15T03:09:37.046Z,27.27
2022-10-15T03:12:09.490Z,26.83
2022-10-15T03:14:40.688Z,24.73
2022-10-15T03:17:11.504Z,28.85
2022-10-15T03:19:43.116Z,25.67
2022-10-15T03:24:52.097Z,25.05
2022-10-15T03:27:28.055Z,30.10
2022-10-15T03:30:00.595Z,22.60
2022-10-15T03:32:36.252Z,28.73
2022-10-15T03:35:10.032Z,31.00
2022-10-15T03:37:40.848Z,25.02
2022-10-15T03:40:14.541Z,25.98
2022-10-15T03:42:47.473Z,30.63
2022-10-15T03:45:18.454Z,24.02
2022-10-15T03:47:53.609Z,25.48
2022-10-15T03:50:24.866Z,20.40
2022-10-15T03:52:56.127Z,22.20
2022-10-15T03:55:27.321Z,20.23
2022-10-15T03:57:58.219Z,17.27
2022-10-15T04:00:29.364Z,22.45
2022-10-15T04:03:03.597Z,30.67
2022-10-15T04:05:34.467Z,17.95
2022-10-15T04:08:09.802Z,24.27
2022-10-15T04:10:44.137Z,17.17
2022-10-15T04:13:14.965Z,18.67
2022-10-15T04:15:46.656Z,28.88
2022-10-15T04:18:18.297Z,22.70
2022-10-15T04:20:49.123Z,17.80
2022-10-15T04:23:26.519Z,17.55
2022-10-15T04:26:20.591Z,19.38
2022-10-15T04:28:52.151Z,23.52
2022-10-15T04:31:24.845Z,18.58
2022-10-15T04:33:56.893Z,16.25
2022-10-15T04:39:08.667Z,17.02
2022-10-15T04:41:45.195Z,15.82
2022-10-15T04:44:24.516Z,17.75
2022-10-15T04:46:59.673Z,18.08
2022-10-15T04:49:47.051Z,18.42
2022-10-15T04:52:45.193Z,20.33
2022-10-15T04:55:17.053Z,19.98
2022-10-15T04:57:47.948Z,20.10
2022-10-15T05:00:23.861Z,20.70
2022-10-15T05:06:13.938Z,17.88
2022-10-15T05:08:46.095Z,19.83
2022-10-15T05:11:26.345Z,17.73
2022-10-15T05:14:00.335Z,19.38
2022-10-15T05:16:36.594Z,16.70
2022-10-15T05:19:11.917Z,13.32
2022-10-15T05:21:44.983Z,15.43
2022-10-15T05:24:25.825Z,12.60
2022-10-15T05:27:28.890Z,12.90
2022-10-15T05:32:57.686Z,14.63
2022-10-15T05:35:29.060Z,14.25
2022-10-15T05:38:04.685Z,17.65
2022-10-15T05:43:21.590Z,11.85
2022-10-15T05:45:56.402Z,12.73
2022-10-15T05:48:28.917Z,16.17
2022-10-15T05:51:11.849Z,12.55
2022-10-15T05:53:43.302Z,14.93
2022-10-15T05:56:15.109Z,15.30
2022-10-15T05:58:46.032Z,15.15
2022-10-15T06:01:17.522Z,13.52
2022-10-15T06:03:55.235Z,12.25
2022-10-15T06:06:30.084Z,17.58
2022-10-15T06:09:02.573Z,12.65
2022-10-15T06:11:33.889Z,12.90
2022-10-15T06:14:04.793Z,13.25
2022-10-15T06:16:36.090Z,13.75
2022-10-15T06:21:37.676Z,15.05
2022-10-15T06:24:10.057Z,13.33
2022-10-15T06:26:41.387Z,11.90
2022-10-15T06:29:13.145Z,10.20
2022-10-15T06:31:43.857Z,18.67
2022-10-15T06:34:14.563Z,12.07
2022-10-15T06:36:45.492Z,14.23
2022-10-15T06:39:16.476Z,12.57
2022-10-15T06:41:48.201Z,13.00
2022-10-15T06:44:18.936Z,11.77
2022-10-15T06:46:49.631Z,15.17
2022-10-15T06:49:20.314Z,11.43
2022-10-15T06:51:51.004Z,14.38
2022-10-15T06:54:21.700Z,13.53
2022-10-15T06:56:52.252Z,11.40
2022-10-15T06:59:25.982Z,13.13
2022-10-15T07:01:57.939Z,15.45
2022-10-15T07:04:28.782Z,12.90
2022-10-15T07:06:59.968Z,11.82
2022-10-15T07:09:31.633Z,14.50
2022-10-15T07:12:02.360Z,11.68
2022-10-15T07:14:33.449Z,13.95
2022-10-15T07:17:05.108Z,14.75
2022-10-15T07:19:35.878Z,12.13
2022-10-15T07:22:06.744Z,11.35
2022-10-15T07:24:37.520Z,11.93
2022-10-15T07:27:18.681Z,8.63
2022-10-15T07:29:50.027Z,11.10
2022-10-15T07:32:21.131Z,11.18
2022-10-15T07:34:52.398Z,14.38
2022-10-15T07:37:23.171Z,10.73
2022-10-15T07:39:53.995Z,10.20
2022-10-15T07:42:24.715Z,11.00
2022-10-15T07:44:55.528Z,13.90
2022-10-15T07:47:26.574Z,11.70
2022-10-15T07:49:57.865Z,11.93
2022-10-15T07:52:28.492Z,11.68
2022-10-15T07:54:59.211Z,12.70
2022-10-15T07:57:30.058Z,11.45
2022-10-15T08:00:00.799Z,10.35
2022-10-15T08:02:31.617Z,9.82
2022-10-15T08:05:02.365Z,10.13
2022-10-15T08:07:33.315Z,7.57
2022-10-15T08:10:05.127Z,7.90
2022-10-15T08:12:35.948Z,7.68
2022-10-15T08:15:07.336Z,9.30
2022-10-15T08:17:38.221Z,8.10
2022-10-15T08:20:09.506Z,10.55
2022-10-15T08:22:40.174Z,8.02
2022-10-15T08:25:11.519Z,9.13
2022-10-15T08:30:13.173Z,10.27
2022-10-15T08:35:14.433Z,11.38
2022-10-15T08:37:45.091Z,11.02
2022-10-15T08:40:17.252Z,11.40
2022-10-15T08:42:49.522Z,10.25
2022-10-15T08:45:26.777Z,12.35
2022-10-15T08:48:07.620Z,11.15
2022-10-15T08:50:47.450Z,12.93
2022-10-15T08:56:07.053Z,15.45
2022-10-15T09:01:58.475Z,14.23
2022-10-15T09:04:29.129Z,11.38
2022-10-15T09:07:18.221Z,17.97
2022-10-15T09:09:57.390Z,16.67
2022-10-15T09:12:49.141Z,47.33
2022-10-15T09:15:27.067Z,14.23
2022-10-15T09:17:58.911Z,14.90
2022-10-15T09:20:39.059Z,14.50
2022-10-15T09:23:18.461Z,12.88
2022-10-15T09:26:02.641Z,16.95
2022-10-15T09:28:50.004Z,15.55
2022-10-15T09:31:31.013Z,17.83
2022-10-15T09:34:14.821Z,17.63
2022-10-15T09:36:59.753Z,63.90
2022-10-15T09:39:57.482Z,140.55
2022-10-15T09:42:34.533Z,14.07
2022-10-15T09:45:13.229Z,13.50
2022-10-15T09:47:45.871Z,15.23
2022-10-15T09:53:07.951Z,12.82
2022-10-15T09:55:38.856Z,15.80
2022-10-15T09:58:21.513Z,15.98
2022-10-15T10:01:01.201Z,15.05
2022-10-15T10:03:39.834Z,17.27
2022-10-15T10:06:12.745Z,17.30
2022-10-15T10:09:02.084Z,18.13
2022-10-15T10:11:51.540Z,18.00
2022-10-15T10:14:46.043Z,15.77
2022-10-15T10:17:26.322Z,14.68
2022-10-15T10:20:23.220Z,15.43
2022-10-15T10:22:56.627Z,17.10
2022-10-15T10:25:31.330Z,19.65
2022-10-15T10:28:17.164Z,14.73
2022-10-15T10:31:06.455Z,20.00
2022-10-15T10:33:42.745Z,15.32
2022-10-15T10:36:33.409Z,15.52
2022-10-15T10:39:08.711Z,13.88
2022-10-15T10:41:54.495Z,15.93
2022-10-15T10:44:33.349Z,15.65
2022-10-15T10:47:22.926Z,13.32
2022-10-15T10:50:00.256Z,305.63
2022-10-15T10:52:34.253Z,128.38
2022-10-15T10:55:22.022Z,16.45
2022-10-15T10:57:57.131Z,16.27
2022-10-15T11:00:52.399Z,17.83
2022-10-15T11:03:40.568Z,19.27
2022-10-15T11:06:26.835Z,22.13
2022-10-15T11:09:26.989Z,22.45
2022-10-15T11:12:24.176Z,22.20
2022-10-15T11:15:27.003Z,18.67
2022-10-15T11:18:18.803Z,23.98
2022-10-15T11:21:08.218Z,22.15
2022-10-15T11:24:03.367Z,18.17
2022-10-15T11:27:11.273Z,21.13
2022-10-15T11:29:59.606Z,17.30
2022-10-15T11:33:13.349Z,17.15
2022-10-15T11:36:05.802Z,19.73
2022-10-15T11:38:59.962Z,15.70
2022-10-15T11:41:43.384Z,19.83
2022-10-15T11:44:47.578Z,15.30
2022-10-15T11:47:21.225Z,16.88
2022-10-15T11:49:51.878Z,16.08
2022-10-15T11:53:02.546Z,18.45
2022-10-15T11:55:53.384Z,16.45
2022-10-15T11:58:51.191Z,13.80
2022-10-15T12:02:01.397Z,17.27
2022-10-15T12:04:59.761Z,19.50
2022-10-15T12:07:41.743Z,13.35
2022-10-15T12:10:38.324Z,13.32
2022-10-15T12:13:13.859Z,14.10
2022-10-15T12:16:09.075Z,15.80
2022-10-15T12:19:00.837Z,12.65
2022-10-15T12:24:06.211Z,13.10
2022-10-15T12:26:38.300Z,12.57
2022-10-15T12:29:24.140Z,11.27
2022-10-15T12:32:01.233Z,11.15
2022-10-15T12:34:42.606Z,11.18
2022-10-15T12:37:21.786Z,11.32
2022-10-15T12:40:00.146Z,896.22
2022-10-15T12:46:00.540Z,18.85
2022-10-15T12:48:37.209Z,17.75
2022-10-15T12:51:20.545Z,13.27
2022-10-15T12:53:52.843Z,16.33
2022-10-15T12:56:43.427Z,13.80
2022-10-15T12:59:34.562Z,17.00
2022-10-15T13:02:05.815Z,12.18
2022-10-15T13:04:42.218Z,17.08
2022-10-15T13:07:17.896Z,13.85
2022-10-15T13:09:48.983Z,13.25
2022-10-15T13:15:06.997Z,11.00
2022-10-15T13:17:42.196Z,13.50
2022-10-15T13:20:46.536Z,10.98
2022-10-15T13:26:16.908Z,10.95
2022-10-15T13:28:48.815Z,7.90
2022-10-15T13:31:34.458Z,9.30
2022-10-15T13:34:30.238Z,11.07
2022-10-15T13:37:03.756Z,10.45
2022-10-15T13:39:38.812Z,9.48
2022-10-15T13:42:19.457Z,8.52
2022-10-15T13:45:03.913Z,8.33
2022-10-15T13:47:37.116Z,9.55
2022-10-15T13:50:27.804Z,8.30
2022-10-15T13:53:24.709Z,11.00
2022-10-15T13:55:59.531Z,8.77
2022-10-15T13:58:32.072Z,7.65
2022-10-15T14:01:11.858Z,10.00
2022-10-15T14:03:58.961Z,8.88
2022-10-15T14:06:37.007Z,10.57
2022-10-15T14:09:31.720Z,7.95
2022-10-15T14:12:03.755Z,8.35
2022-10-15T14:14:49.411Z,7.10
2022-10-15T14:17:20.173Z,8.27
2022-10-15T14:20:25.679Z,10.02
2022-10-15T14:22:54.378Z,8.95
2022-10-15T14:25:29.241Z,9.02
2022-10-15T14:27:59.988Z,8.65
2022-10-15T14:30:35.646Z,7.65
2022-10-15T14:33:07.143Z,9.07
2022-10-15T14:35:39.883Z,9.77
2022-10-15T14:38:14.768Z,10.38
2022-10-15T14:41:06.475Z,8.55
2022-10-15T14:43:40.792Z,10.52
2022-10-15T14:49:00.798Z,10.95
2022-10-15T14:51:32.203Z,8.60
2022-10-15T14:54:03.567Z,12.15
2022-10-15T14:59:07.134Z,10.90
2022-10-15T15:01:38.331Z,9.68
2022-10-15T15:04:09.181Z,8.25
2022-10-15T15:06:40.662Z,9.48
2022-10-15T15:09:11.819Z,9.47
2022-10-15T15:11:42.737Z,8.85
2022-10-15T15:14:29.836Z,7.97
2022-10-15T15:17:00.537Z,8.57
2022-10-15T15:19:31.152Z,7.10
2022-10-15T15:22:01.869Z,9.73
2022-10-15T15:24:32.439Z,8.67
2022-10-15T15:27:03.204Z,7.00
2022-10-15T15:29:34.128Z,7.70
2022-10-15T15:32:04.876Z,7.80
2022-10-15T15:34:35.985Z,7.15
2022-10-15T15:37:18.855Z,5.75
2022-10-15T15:39:49.774Z,6.68
2022-10-15T15:42:25.900Z,7.10
2022-10-15T15:44:57.123Z,7.30
2022-10-15T15:47:28.026Z,8.18
2022-10-15T15:49:58.859Z,6.90
2022-10-15T15:52:31.321Z,6.50
2022-10-15T15:55:04.970Z,6.95
2022-10-15T15:57:35.899Z,6.90
2022-10-15T16:00:11.847Z,6.82
2022-10-15T16:02:43.289Z,6.55
2022-10-15T16:05:17.199Z,8.00
2022-10-15T16:07:49.044Z,6.28
2022-10-15T16:10:20.486Z,6.38
